createdAt,value
2022-12-22T00:00:08.343Z,0
2022-12-22T00:01:11.134Z,0
2022-12-22T00:02:14.494Z,0
2022-12-22T00:03:18.893Z,0
2022-12-22T00:04:22.742Z,0
2022-12-22T00:05:26.553Z,0
2022-12-22T00:06:30.272Z,0
2022-12-22T00:07:33.341Z,0
2022-12-22T00:08:36.756Z,0
2022-12-22T00:09:40.134Z,0
2022-12-22T00:10:43.540Z,0
2022-12-22T00:11:46.717Z,0
2022-12-22T00:12:49.712Z,0
2022-12-22T00:13:52.788Z,0
2022-12-22T00:14:55.809Z,0
2022-12-22T00:15:58.340Z,0
2022-12-22T00:17:01.514Z,0
2022-12-22T00:18:05.605Z,0
2022-12-22T00:19:08.426Z,0
2022-12-22T00:20:16.759Z,0
2022-12-22T00:21:22.521Z,0
2022-12-22T00:22:25.237Z,0
2022-12-22T00:23:28.358Z,0
2022-12-22T00:24:31.332Z,0
2022-12-22T00:25:34.361Z,0
2022-12-22T00:26:37.543Z,0
2022-12-22T00:27:45.315Z,0
2022-12-22T00:28:49.017Z,0
2022-12-22T00:29:51.773Z,0
2022-12-22T00:30:55.168Z,0
2022-12-22T00:31:58.269Z,0
2022-12-22T00:33:01.206Z,0
2022-12-22T00:34:04.629Z,0
2022-12-22T00:35:07.453Z,0
2022-12-22T00:36:11.478Z,0
2022-12-22T00:37:15.680Z,0
2022-12-22T00:38:19.413Z,0
2022-12-22T00:39:22.224Z,0
2022-12-22T00:40:24.948Z,0
2022-12-22T00:41:28.047Z,0
2022-12-22T00:42:31.564Z,0
2022-12-22T00:43:34.299Z,0
2022-12-22T00:44:37.496Z,0
2022-12-22T00:45:40.335Z,0
2022-12-22T00:46:43.495Z,0
2022-12-22T00:47:46.059Z,0
2022-12-22T00:48:49.526Z,0
2022-12-22T00:49:52.421Z,0
2022-12-22T00:50:55.835Z,0
2022-12-22T00:51:58.275Z,0
2022-12-22T00:53:02.388Z,0
2022-12-22T00:54:05.209Z,0
2022-12-22T00:55:08.026Z,0
2022-12-22T00:56:11.352Z,0
2022-12-22T00:57:15.180Z,0
2022-12-22T00:58:18.272Z,0
2022-12-22T00:59:21.027Z,0
2022-12-22T01:00:24.471Z,0
2022-12-22T01:01:27.709Z,0
2022-12-22T01:02:32.004Z,0
2022-12-22T01:03:36.363Z,0
2022-12-22T01:04:39.390Z,0
2022-12-22T01:05:42.481Z,0
2022-12-22T01:06:45.662Z,0
2022-12-22T01:07:48.407Z,0
2022-12-22T01:08:52.337Z,0
2022-12-22T01:09:55.694Z,0
2022-12-22T01:10:58.473Z,0
2022-12-22T01:12:01.260Z,0
2022-12-22T01:13:03.452Z,0
2022-12-22T01:14:06.859Z,0
2022-12-22T01:15:10.271Z,0
2022-12-22T01:16:12.499Z,0
2022-12-22T01:17:15.840Z,0
2022-12-22T01:18:18.633Z,0
2022-12-22T01:19:22.049Z,0
2022-12-22T01:20:25.723Z,0
2022-12-22T01:21:28.481Z,0
2022-12-22T01:22:31.397Z,0
2022-12-22T01:23:34.803Z,0
2022-12-22T01:24:38.631Z,0
2022-12-22T01:25:42.299Z,0
2022-12-22T01:26:45.595Z,0
2022-12-22T01:27:48.316Z,0
2022-12-22T01:28:51.620Z,0
2022-12-22T01:29:54.766Z,0
2022-12-22T01:30:57.895Z,0
2022-12-22T01:32:01.344Z,0
2022-12-22T01:33:04.421Z,0
2022-12-22T01:34:07.516Z,0
2022-12-22T01:35:10.639Z,0
2022-12-22T01:36:13.746Z,0
2022-12-22T01:37:17.129Z,0
2022-12-22T01:38:20.216Z,0
2022-12-22T01:39:23.590Z,0
2022-12-22T01:40:26.921Z,0
2022-12-22T01:41:29.983Z,0
2022-12-22T01:42:32.419Z,0
2022-12-22T01:43:35.824Z,0
2022-12-22T01:44:39.511Z,0
2022-12-22T01:45:42.010Z,0
2022-12-22T01:46:44.976Z,0
2022-12-22T01:47:48.980Z,0
2022-12-22T01:48:52.047Z,0
2022-12-22T01:49:55.098Z,0
2022-12-22T01:50:58.448Z,0
2022-12-22T01:52:01.187Z,0
2022-12-22T01:53:03.919Z,0
2022-12-22T01:54:06.838Z,0
2022-12-22T01:55:10.175Z,0
2022-12-22T01:56:14.338Z,0
2022-12-22T01:57:17.677Z,0
2022-12-22T01:58:21.044Z,0
2022-12-22T01:59:24.293Z,0
2022-12-22T02:00:27.720Z,0
2022-12-22T02:01:31.578Z,0
2022-12-22T02:02:35.997Z,0
2022-12-22T02:03:39.917Z,0
2022-12-22T02:04:43.971Z,0
2022-12-22T02:05:47.079Z,0
2022-12-22T02:06:53.162Z,0
2022-12-22T02:08:03.618Z,0
2022-12-22T02:09:07.011Z,0
2022-12-22T02:10:10.134Z,0
2022-12-22T02:11:13.603Z,0
2022-12-22T02:12:17.745Z,0
2022-12-22T02:13:20.534Z,0
2022-12-22T02:14:27.902Z,0
2022-12-22T02:15:33.611Z,0
2022-12-22T02:16:36.528Z,0
2022-12-22T02:17:39.939Z,0
2022-12-22T02:18:42.875Z,0
2022-12-22T02:19:45.683Z,0
2022-12-22T02:20:48.479Z,0
2022-12-22T02:21:51.906Z,0
2022-12-22T02:22:54.888Z,0
2022-12-22T02:23:57.929Z,0
2022-12-22T02:25:01.097Z,0
2022-12-22T02:26:04.601Z,0
2022-12-22T02:27:07.382Z,0
2022-12-22T02:28:11.269Z,0
2022-12-22T02:29:13.744Z,0
2022-12-22T02:30:16.488Z,0
2022-12-22T02:31:19.994Z,0
2022-12-22T02:32:23.974Z,0
2022-12-22T02:33:27.099Z,0
2022-12-22T02:34:30.177Z,0
2022-12-22T02:35:33.602Z,0
2022-12-22T02:36:36.559Z,0
2022-12-22T02:37:39.932Z,0
2022-12-22T02:38:42.929Z,0
2022-12-22T02:39:46.344Z,0
2022-12-22T02:40:49.116Z,0
2022-12-22T02:41:51.423Z,0
2022-12-22T02:42:54.783Z,0
2022-12-22T02:43:58.687Z,0
2022-12-22T02:45:01.708Z,0
2022-12-22T02:46:05.141Z,0
2022-12-22T02:47:08.211Z,0
2022-12-22T02:48:11.325Z,0
2022-12-22T02:49:13.774Z,0
2022-12-22T02:50:16.788Z,0
2022-12-22T02:51:19.785Z,0
2022-12-22T02:52:22.580Z,0
2022-12-22T02:53:25.348Z,0
2022-12-22T02:54:28.764Z,0
2022-12-22T02:55:32.481Z,0
2022-12-22T02:56:35.972Z,0
2022-12-22T02:57:38.544Z,0
2022-12-22T02:58:42.324Z,0
2022-12-22T02:59:45.927Z,0
2022-12-22T03:00:48.829Z,0
2022-12-22T03:01:52.151Z,0
2022-12-22T03:02:57.256Z,0
2022-12-22T03:04:01.788Z,0
2022-12-22T03:05:04.876Z,0
2022-12-22T03:06:08.603Z,0
2022-12-22T03:07:11.320Z,0
2022-12-22T03:08:14.729Z,0
2022-12-22T03:09:17.082Z,0
2022-12-22T03:10:21.096Z,0
2022-12-22T03:11:24.522Z,0
2022-12-22T03:12:27.623Z,0
2022-12-22T03:13:31.389Z,0
2022-12-22T03:14:34.185Z,0
2022-12-22T03:15:38.305Z,0
2022-12-22T03:16:42.070Z,0
2022-12-22T03:17:45.651Z,0
2022-12-22T03:18:48.737Z,0
2022-12-22T03:19:51.850Z,0
2022-12-22T03:20:54.573Z,0
2022-12-22T03:21:57.605Z,0
2022-12-22T03:23:01.007Z,0
2022-12-22T03:24:03.821Z,0
2022-12-22T03:25:05.990Z,0
2022-12-22T03:26:09.078Z,0
2022-12-22T03:27:12.000Z,0
2022-12-22T03:28:15.051Z,0
2022-12-22T03:29:18.075Z,0
2022-12-22T03:30:20.858Z,0
2022-12-22T03:31:24.193Z,0
2022-12-22T03:32:27.534Z,0
2022-12-22T03:33:30.013Z,0
2022-12-22T03:34:32.508Z,0
2022-12-22T03:35:35.588Z,0
2022-12-22T03:36:38.996Z,0
2022-12-22T03:37:42.464Z,0
2022-12-22T03:38:45.455Z,0
2022-12-22T03:39:47.978Z,0
2022-12-22T03:40:51.091Z,0
2022-12-22T03:41:54.363Z,0
2022-12-22T03:42:57.114Z,0
2022-12-22T03:43:59.912Z,0
2022-12-22T03:45:02.757Z,0
2022-12-22T03:46:05.590Z,0
2022-12-22T03:47:09.530Z,0
2022-12-22T03:48:13.265Z,0
2022-12-22T03:49:16.184Z,0
2022-12-22T03:50:19.089Z,0
2022-12-22T03:51:21.369Z,0
2022-12-22T03:52:24.478Z,0
2022-12-22T03:53:27.487Z,0
2022-12-22T03:54:30.827Z,0
2022-12-22T03:55:34.248Z,0
2022-12-22T03:56:37.028Z,0
2022-12-22T03:57:40.408Z,0
2022-12-22T03:58:43.446Z,0
2022-12-22T03:59:46.194Z,0
2022-12-22T04:00:49.701Z,0
2022-12-22T04:01:53.230Z,0
2022-12-22T04:02:58.926Z,0
2022-12-22T04:04:03.907Z,0
2022-12-22T04:05:06.618Z,0
2022-12-22T04:06:09.727Z,0
2022-12-22T04:07:12.170Z,0
2022-12-22T04:08:14.937Z,0
2022-12-22T04:09:17.662Z,0
2022-12-22T04:10:20.933Z,0
2022-12-22T04:11:24.014Z,0
2022-12-22T04:12:26.557Z,0
2022-12-22T04:13:29.966Z,0
2022-12-22T04:14:34.824Z,0
2022-12-22T04:15:38.527Z,0
2022-12-22T04:16:41.806Z,0
2022-12-22T04:17:45.156Z,0
2022-12-22T04:18:49.252Z,0
2022-12-22T04:19:52.683Z,0
2022-12-22T04:20:55.860Z,0
2022-12-22T04:21:59.647Z,0
2022-12-22T04:23:03.011Z,0
2022-12-22T04:24:06.802Z,0
2022-12-22T04:25:09.938Z,0
2022-12-22T04:26:13.331Z,0
2022-12-22T04:27:16.508Z,0
2022-12-22T04:28:19.390Z,0
2022-12-22T04:29:22.568Z,0
2022-12-22T04:30:25.121Z,0
2022-12-22T04:31:28.308Z,0
2022-12-22T04:32:30.782Z,0
2022-12-22T04:33:34.199Z,0
2022-12-22T04:34:37.830Z,0
2022-12-22T04:35:40.528Z,0
2022-12-22T04:36:43.646Z,0
2022-12-22T04:37:46.989Z,0
2022-12-22T04:38:49.770Z,0
2022-12-22T04:39:52.507Z,0
2022-12-22T04:40:54.718Z,0
2022-12-22T04:41:57.903Z,0
2022-12-22T04:43:01.200Z,0
2022-12-22T04:44:04.195Z,0
2022-12-22T04:45:07.353Z,0
2022-12-22T04:46:10.168Z,0
2022-12-22T04:47:14.300Z,0
2022-12-22T04:48:17.012Z,0
2022-12-22T04:49:19.424Z,0
2022-12-22T04:50:23.370Z,0
2022-12-22T04:51:26.232Z,0
2022-12-22T04:52:29.313Z,0
2022-12-22T04:53:31.803Z,0
2022-12-22T04:54:35.260Z,0
2022-12-22T04:55:38.655Z,0
2022-12-22T04:56:41.464Z,0
2022-12-22T04:57:44.215Z,0
2022-12-22T04:58:46.732Z,0
2022-12-22T04:59:49.822Z,0
2022-12-22T05:00:52.362Z,0
2022-12-22T05:01:55.980Z,0
2022-12-22T05:03:00.462Z,0
2022-12-22T05:04:04.049Z,0
2022-12-22T05:05:06.860Z,0
2022-12-22T05:06:11.043Z,0
2022-12-22T05:07:13.818Z,0
2022-12-22T05:08:16.916Z,0
2022-12-22T05:09:20.234Z,0
2022-12-22T05:10:23.435Z,0
2022-12-22T05:11:25.870Z,0
2022-12-22T05:12:29.145Z,0
2022-12-22T05:13:31.969Z,0
2022-12-22T05:14:34.836Z,0
2022-12-22T05:15:38.419Z,0
2022-12-22T05:16:40.930Z,0
2022-12-22T05:17:44.456Z,0
2022-12-22T05:18:47.491Z,0
2022-12-22T05:19:51.002Z,0
2022-12-22T05:20:54.286Z,0
2022-12-22T05:21:58.386Z,0
2022-12-22T05:23:01.234Z,0
2022-12-22T05:24:04.017Z,0
2022-12-22T05:25:07.446Z,0
2022-12-22T05:26:10.239Z,0
2022-12-22T05:27:13.626Z,0
2022-12-22T05:28:16.366Z,0
2022-12-22T05:29:19.437Z,0
2022-12-22T05:30:22.858Z,0
2022-12-22T05:31:26.143Z,0
2022-12-22T05:32:30.311Z,0
2022-12-22T05:33:33.707Z,0
2022-12-22T05:34:37.066Z,0
2022-12-22T05:35:40.092Z,0
2022-12-22T05:36:42.803Z,0
2022-12-22T05:37:46.477Z,0
2022-12-22T05:38:49.545Z,0
2022-12-22T05:39:51.793Z,0
2022-12-22T05:40:59.892Z,0
2022-12-22T05:42:07.497Z,0
2022-12-22T05:43:09.947Z,0
2022-12-22T05:44:13.059Z,0
2022-12-22T05:45:16.427Z,0
2022-12-22T05:46:19.887Z,0
2022-12-22T05:47:23.687Z,0
2022-12-22T05:48:30.957Z,0
2022-12-22T05:49:42.996Z,0
2022-12-22T05:50:46.483Z,0
2022-12-22T05:51:49.304Z,0
2022-12-22T05:52:53.157Z,0
2022-12-22T05:53:56.292Z,0
2022-12-22T05:54:59.415Z,0
2022-12-22T05:56:02.566Z,0
2022-12-22T05:57:05.627Z,0
2022-12-22T05:58:07.782Z,0
2022-12-22T05:59:10.501Z,0
2022-12-22T06:00:13.215Z,0
2022-12-22T06:01:16.638Z,0
2022-12-22T06:02:19.618Z,0
2022-12-22T06:03:24.417Z,0
2022-12-22T06:04:28.996Z,0
2022-12-22T06:05:32.920Z,0
2022-12-22T06:06:35.730Z,0
2022-12-22T06:07:39.054Z,0
2022-12-22T06:08:42.642Z,0
2022-12-22T06:09:45.087Z,0
2022-12-22T06:10:47.814Z,0
2022-12-22T06:11:50.871Z,0
2022-12-22T06:12:53.964Z,0
2022-12-22T06:13:57.307Z,0
2022-12-22T06:15:01.048Z,0
2022-12-22T06:16:03.653Z,0
2022-12-22T06:17:07.088Z,0
2022-12-22T06:18:10.528Z,0
2022-12-22T06:19:13.979Z,0
2022-12-22T06:20:16.691Z,0
2022-12-22T06:21:20.164Z,0
2022-12-22T06:22:22.967Z,0
2022-12-22T06:23:26.253Z,0
2022-12-22T06:24:30.422Z,0
2022-12-22T06:25:34.141Z,0
2022-12-22T06:26:36.879Z,0
2022-12-22T06:27:40.275Z,0
2022-12-22T06:28:43.342Z,0
2022-12-22T06:29:46.668Z,0
2022-12-22T06:30:49.729Z,0
2022-12-22T06:31:52.763Z,0
2022-12-22T06:32:55.787Z,0
2022-12-22T06:33:58.902Z,0
2022-12-22T06:35:01.652Z,0
2022-12-22T06:36:04.889Z,0
2022-12-22T06:37:07.677Z,0
2022-12-22T06:38:10.670Z,0
2022-12-22T06:39:13.796Z,0
2022-12-22T06:40:17.978Z,0
2022-12-22T06:41:21.062Z,0
2022-12-22T06:42:24.141Z,0
2022-12-22T06:43:26.881Z,0
2022-12-22T06:44:30.489Z,0
2022-12-22T06:45:33.338Z,0
2022-12-22T06:46:36.161Z,0
2022-12-22T06:47:39.785Z,0
2022-12-22T06:48:41.996Z,0
2022-12-22T06:49:45.428Z,0
2022-12-22T06:50:48.785Z,0
2022-12-22T06:51:52.077Z,0
2022-12-22T06:52:54.743Z,0
2022-12-22T06:53:57.824Z,4
2022-12-22T06:55:01.200Z,4
2022-12-22T06:56:05.304Z,0
2022-12-22T06:57:08.369Z,4
2022-12-22T06:58:11.744Z,4
2022-12-22T06:59:14.897Z,4
2022-12-22T07:00:18.271Z,4
2022-12-22T07:01:21.396Z,4
2022-12-22T07:02:24.568Z,8
2022-12-22T07:03:30.077Z,8
2022-12-22T07:04:33.540Z,12
2022-12-22T07:05:36.628Z,12
2022-12-22T07:06:40.044Z,12
2022-12-22T07:07:42.767Z,16
2022-12-22T07:08:46.222Z,20
2022-12-22T07:09:49.600Z,20
2022-12-22T07:10:52.076Z,24
2022-12-22T07:11:55.664Z,28
2022-12-22T07:12:59.306Z,32
2022-12-22T07:14:02.370Z,36
2022-12-22T07:15:05.790Z,40
2022-12-22T07:16:08.735Z,40
2022-12-22T07:17:12.575Z,48
2022-12-22T07:18:15.616Z,52
2022-12-22T07:19:19.398Z,60
2022-12-22T07:20:22.227Z,72
2022-12-22T07:21:25.219Z,76
2022-12-22T07:22:30.548Z,88
2022-12-22T07:23:33.653Z,92
2022-12-22T07:24:37.463Z,80
2022-12-22T07:25:40.291Z,88
2022-12-22T07:26:43.087Z,96
2022-12-22T07:27:47.241Z,104
2022-12-22T07:28:50.099Z,112
2022-12-22T07:29:53.829Z,116
2022-12-22T07:30:57.189Z,112
2022-12-22T07:32:01.193Z,124
2022-12-22T07:33:04.557Z,136
2022-12-22T07:34:07.011Z,160
2022-12-22T07:35:09.999Z,168
2022-12-22T07:36:13.129Z,180
2022-12-22T07:37:16.264Z,172
2022-12-22T07:38:19.592Z,168
2022-12-22T07:39:22.668Z,164
2022-12-22T07:40:25.609Z,172
2022-12-22T07:41:29.236Z,188
2022-12-22T07:42:32.016Z,200
2022-12-22T07:43:36.169Z,196
2022-12-22T07:44:39.539Z,180
2022-12-22T07:45:42.079Z,172
2022-12-22T07:46:45.323Z,184
2022-12-22T07:47:48.854Z,208
2022-12-22T07:48:51.951Z,232
2022-12-22T07:49:55.573Z,268
2022-12-22T07:50:58.583Z,308
2022-12-22T07:52:01.129Z,336
2022-12-22T07:53:03.576Z,308
2022-12-22T07:54:06.963Z,344
2022-12-22T07:55:10.144Z,380
2022-12-22T07:56:13.331Z,380
2022-12-22T07:57:16.031Z,416
2022-12-22T07:58:19.091Z,460
2022-12-22T07:59:22.891Z,532
2022-12-22T08:00:25.671Z,588
2022-12-22T08:01:29.273Z,648
2022-12-22T08:02:38.646Z,636
2022-12-22T08:03:43.188Z,632
2022-12-22T08:04:46.384Z,616
2022-12-22T08:05:49.783Z,588
2022-12-22T08:06:53.183Z,540
2022-12-22T08:07:55.890Z,556
2022-12-22T08:08:58.627Z,564
2022-12-22T08:10:01.496Z,636
2022-12-22T08:11:05.445Z,680
2022-12-22T08:12:08.650Z,700
2022-12-22T08:13:12.097Z,796
2022-12-22T08:14:16.183Z,804
2022-12-22T08:15:19.723Z,768
2022-12-22T08:16:23.252Z,768
2022-12-22T08:17:26.429Z,796
2022-12-22T08:18:29.843Z,820
2022-12-22T08:19:32.868Z,924
2022-12-22T08:20:35.672Z,812
2022-12-22T08:21:38.211Z,748
2022-12-22T08:22:53.328Z,580
2022-12-22T08:23:56.768Z,516
2022-12-22T08:25:00.216Z,496
2022-12-22T08:26:03.669Z,488
2022-12-22T08:27:07.085Z,416
2022-12-22T08:28:10.158Z,352
2022-12-22T08:29:13.448Z,380
2022-12-22T08:30:17.175Z,420
2022-12-22T08:31:20.860Z,444
2022-12-22T08:32:24.246Z,476
2022-12-22T08:33:27.597Z,516
2022-12-22T08:34:31.399Z,576
2022-12-22T08:35:34.383Z,608
2022-12-22T08:36:36.561Z,756
2022-12-22T08:37:40.054Z,960
2022-12-22T08:38:43.868Z,1044
2022-12-22T08:39:46.847Z,1220
2022-12-22T08:40:49.319Z,1384
2022-12-22T08:41:52.483Z,1240
2022-12-22T08:42:55.244Z,1136
2022-12-22T08:43:58.520Z,1124
2022-12-22T08:45:01.341Z,1188
2022-12-22T08:46:04.578Z,1332
2022-12-22T08:47:13.135Z,1388
2022-12-22T08:48:20.205Z,1480
2022-12-22T08:49:23.934Z,1592
2022-12-22T08:50:27.691Z,1656
2022-12-22T08:51:31.496Z,1648
2022-12-22T08:52:34.817Z,1472
2022-12-22T08:54:03.659Z,1428
2022-12-22T08:55:10.179Z,1260
2022-12-22T08:56:12.504Z,1256
2022-12-22T08:57:16.065Z,1148
2022-12-22T08:58:19.167Z,1044
2022-12-22T08:59:23.356Z,1180
2022-12-22T09:00:26.359Z,1132
2022-12-22T09:01:29.352Z,1116
2022-12-22T09:02:34.665Z,1300
2022-12-22T09:03:39.158Z,1368
2022-12-22T09:04:42.799Z,1496
2022-12-22T09:05:45.589Z,1656
2022-12-22T09:06:48.392Z,1712
2022-12-22T09:07:52.052Z,1700
2022-12-22T09:08:55.123Z,1636
2022-12-22T09:09:58.919Z,1620
2022-12-22T09:11:01.914Z,1636
2022-12-22T09:12:05.239Z,1780
2022-12-22T09:13:08.035Z,1844
2022-12-22T09:14:11.052Z,1876
2022-12-22T09:15:15.161Z,2176
2022-12-22T09:16:18.074Z,2220
2022-12-22T09:17:21.571Z,2020
2022-12-22T09:18:25.723Z,2020
2022-12-22T09:19:29.144Z,2160
2022-12-22T09:20:32.233Z,2616
2022-12-22T09:21:35.634Z,2848
2022-12-22T09:22:39.018Z,2648
2022-12-22T09:23:41.287Z,2780
2022-12-22T09:24:44.378Z,3124
2022-12-22T09:25:47.113Z,2944
2022-12-22T09:26:50.489Z,2692
2022-12-22T09:27:53.509Z,2616
2022-12-22T09:28:56.560Z,2448
2022-12-22T09:29:59.931Z,2408
2022-12-22T09:31:03.756Z,2600
2022-12-22T09:32:06.876Z,2688
2022-12-22T09:33:10.993Z,2488
2022-12-22T09:34:18.279Z,2268
2022-12-22T09:35:21.974Z,2052
2022-12-22T09:36:25.416Z,2012
2022-12-22T09:37:28.531Z,1900
2022-12-22T09:38:32.270Z,1752
2022-12-22T09:39:35.252Z,1628
2022-12-22T09:40:38.567Z,1488
2022-12-22T09:41:41.598Z,1432
2022-12-22T09:42:44.642Z,1392
2022-12-22T09:43:47.369Z,1388
2022-12-22T09:44:50.571Z,1404
2022-12-22T09:45:53.390Z,1392
2022-12-22T09:46:57.103Z,1444
2022-12-22T09:48:00.438Z,1556
2022-12-22T09:49:03.518Z,1676
2022-12-22T09:50:07.620Z,1728
2022-12-22T09:51:10.336Z,1760
2022-12-22T09:52:13.745Z,1760
2022-12-22T09:53:16.522Z,1712
2022-12-22T09:54:19.659Z,1716
2022-12-22T09:55:22.461Z,1748
2022-12-22T09:56:25.663Z,1684
2022-12-22T09:57:29.460Z,1552
2022-12-22T09:58:32.934Z,1416
2022-12-22T09:59:36.036Z,1476
2022-12-22T10:00:39.798Z,1552
2022-12-22T10:01:42.871Z,1764
2022-12-22T10:02:47.394Z,1864
2022-12-22T10:03:53.885Z,2028
2022-12-22T10:05:04.105Z,2200
2022-12-22T10:06:08.014Z,2252
2022-12-22T10:07:11.392Z,2376
2022-12-22T10:08:14.511Z,2500
2022-12-22T10:09:45.967Z,2452
2022-12-22T10:10:54.539Z,2332
2022-12-22T10:11:58.341Z,2360
2022-12-22T10:13:01.700Z,2396
2022-12-22T10:14:04.350Z,2472
2022-12-22T10:15:07.142Z,2520
2022-12-22T10:16:09.572Z,2580
2022-12-22T10:17:12.703Z,2660
2022-12-22T10:18:16.003Z,2764
2022-12-22T10:19:19.467Z,2820
2022-12-22T10:20:25.696Z,2768
2022-12-22T10:21:30.051Z,2648
2022-12-22T10:22:33.131Z,2616
2022-12-22T10:23:36.194Z,2780
2022-12-22T10:24:39.729Z,2632
2022-12-22T10:27:37.184Z,2728
2022-12-22T10:28:54.090Z,2724
2022-12-22T10:29:57.503Z,2744
2022-12-22T10:31:00.652Z,2608
2022-12-22T10:32:03.435Z,2716
2022-12-22T10:33:07.460Z,2748
2022-12-22T10:34:10.961Z,2708
2022-12-22T10:35:13.989Z,2900
2022-12-22T10:36:17.072Z,2872
2022-12-22T10:37:21.302Z,2452
2022-12-22T10:38:24.252Z,2472
2022-12-22T10:39:28.024Z,2464
2022-12-22T10:40:33.558Z,2436
2022-12-22T10:41:36.593Z,2448
2022-12-22T10:42:40.194Z,2304
2022-12-22T10:43:43.567Z,2200
2022-12-22T10:44:46.949Z,2068
2022-12-22T10:45:50.002Z,1864
2022-12-22T10:46:53.751Z,1780
2022-12-22T10:47:57.543Z,1828
2022-12-22T10:49:00.137Z,1840
2022-12-22T10:50:03.470Z,1580
2022-12-22T10:51:06.862Z,1672
2022-12-22T10:52:10.874Z,1800
2022-12-22T10:53:15.082Z,1856
2022-12-22T10:54:18.432Z,1952
2022-12-22T10:55:21.440Z,1932
2022-12-22T10:56:24.963Z,2240
2022-12-22T10:57:27.860Z,2300
2022-12-22T10:58:31.540Z,2184
2022-12-22T10:59:34.695Z,1972
2022-12-22T11:00:38.505Z,1884
2022-12-22T11:01:55.589Z,1856
2022-12-22T11:03:02.634Z,2044
2022-12-22T11:04:08.537Z,2232
2022-12-22T11:05:13.615Z,2080
2022-12-22T11:06:16.084Z,1964
2022-12-22T11:07:18.562Z,1824
2022-12-22T11:08:22.680Z,1884
2022-12-22T11:09:35.212Z,1960
2022-12-22T11:10:39.234Z,1800
2022-12-22T11:11:42.625Z,1632
2022-12-22T11:12:46.353Z,1664
2022-12-22T11:13:50.032Z,1584
2022-12-22T11:14:52.772Z,1580
2022-12-22T11:15:56.509Z,1528
2022-12-22T11:16:59.909Z,1528
2022-12-22T11:18:03.797Z,1444
2022-12-22T11:19:07.436Z,1536
2022-12-22T11:20:10.236Z,1432
2022-12-22T11:21:17.297Z,1532
2022-12-22T11:22:27.280Z,1516
2022-12-22T11:23:32.348Z,1412
2022-12-22T11:24:36.079Z,1292
2022-12-22T11:25:39.387Z,1264
2022-12-22T11:26:42.466Z,1328
2022-12-22T11:27:46.519Z,1396
2022-12-22T11:28:50.270Z,1436
2022-12-22T11:29:53.996Z,1612
2022-12-22T11:30:57.169Z,1604
2022-12-22T11:32:00.881Z,1560
2022-12-22T11:33:04.549Z,1436
2022-12-22T11:34:07.562Z,1508
2022-12-22T11:35:10.897Z,1560
2022-12-22T11:36:15.258Z,1728
2022-12-22T11:42:23.300Z,1764
2022-12-22T11:43:26.743Z,1532
2022-12-22T11:44:30.771Z,1384
2022-12-22T11:45:37.675Z,1468
2022-12-22T11:46:46.755Z,1472
2022-12-22T11:47:51.012Z,1692
2022-12-22T11:48:54.768Z,2020
2022-12-22T11:49:59.092Z,2044
2022-12-22T11:52:27.521Z,1996
2022-12-22T11:53:30.810Z,1832
2022-12-22T11:54:35.278Z,1892
2022-12-22T11:55:39.105Z,1824
2022-12-22T11:56:42.287Z,1740
2022-12-22T11:57:45.920Z,1840
2022-12-22T11:58:50.099Z,2028
2022-12-22T11:59:53.252Z,2156
2022-12-22T12:01:13.903Z,2096
2022-12-22T12:02:29.620Z,1976
2022-12-22T12:03:34.980Z,1940
2022-12-22T12:04:39.107Z,2004
2022-12-22T12:05:42.785Z,2080
2022-12-22T12:06:45.921Z,2176
2022-12-22T12:07:49.044Z,2392
2022-12-22T12:08:52.190Z,2288
2022-12-22T12:09:55.445Z,2240
2022-12-22T12:10:58.714Z,2224
2022-12-22T12:12:01.869Z,2288
2022-12-22T12:13:05.690Z,2196
2022-12-22T12:14:09.259Z,1816
2022-12-22T12:15:12.358Z,1636
2022-12-22T12:16:15.872Z,1524
2022-12-22T12:17:19.329Z,1604
2022-12-22T12:18:23.072Z,1724
2022-12-22T12:19:28.688Z,1700
2022-12-22T12:20:32.156Z,1620
2022-12-22T12:21:35.520Z,1804
2022-12-22T12:22:38.665Z,1628
2022-12-22T12:23:41.976Z,1376
2022-12-22T12:24:45.679Z,1188
2022-12-22T12:25:49.411Z,1008
2022-12-22T12:26:52.121Z,960
2022-12-22T12:27:55.124Z,1120
2022-12-22T12:28:58.389Z,1256
2022-12-22T12:30:36.059Z,1264
2022-12-22T12:31:43.157Z,1524
2022-12-22T12:32:47.190Z,1456
2022-12-22T12:33:50.331Z,1724
2022-12-22T12:34:53.060Z,2080
2022-12-22T12:35:56.334Z,1984
2022-12-22T12:36:59.695Z,1600
2022-12-22T12:38:02.470Z,1196
2022-12-22T12:39:07.789Z,1240
2022-12-22T12:40:12.603Z,1176
2022-12-22T12:41:15.360Z,1240
2022-12-22T12:42:18.666Z,1352
2022-12-22T12:43:21.918Z,1232
2022-12-22T12:44:26.000Z,1576
2022-12-22T12:45:29.106Z,2672
2022-12-22T12:46:32.586Z,2736
2022-12-22T12:47:35.695Z,2496
2022-12-22T12:48:40.227Z,1960
2022-12-22T12:49:43.691Z,1764
2022-12-22T12:50:46.807Z,2300
2022-12-22T12:51:49.936Z,3564
2022-12-22T12:52:52.744Z,3652
2022-12-22T12:53:56.822Z,2236
2022-12-22T12:55:00.158Z,2248
2022-12-22T12:56:02.643Z,2708
2022-12-22T12:57:06.104Z,2580
2022-12-22T12:58:09.580Z,2200
2022-12-22T12:59:12.661Z,2744
2022-12-22T13:00:16.463Z,3220
2022-12-22T13:01:19.938Z,2904
2022-12-22T13:02:23.287Z,2912
2022-12-22T13:04:01.606Z,2516
2022-12-22T13:05:09.237Z,2456
2022-12-22T13:06:13.068Z,3180
2022-12-22T13:07:16.215Z,3308
2022-12-22T13:08:19.577Z,4420
2022-12-22T13:10:55.921Z,2708
2022-12-22T13:12:12.034Z,2872
2022-12-22T13:13:26.760Z,3188
2022-12-22T13:14:30.312Z,4016
2022-12-22T13:15:34.334Z,4496
2022-12-22T13:16:38.429Z,6052
2022-12-22T13:17:42.857Z,7492
2022-12-22T13:18:50.078Z,6984
2022-12-22T13:19:55.341Z,6556
2022-12-22T13:21:12.584Z,6000
2022-12-22T13:22:59.426Z,6028
2022-12-22T13:25:35.574Z,6964
2022-12-22T13:26:38.630Z,6980
2022-12-22T13:27:43.024Z,6452
2022-12-22T13:28:46.499Z,5336
2022-12-22T13:29:50.147Z,4056
2022-12-22T13:30:53.928Z,3100
2022-12-22T13:31:57.386Z,2568
2022-12-22T13:33:01.461Z,2192
2022-12-22T13:34:04.316Z,2408
2022-12-22T13:37:01.418Z,3084
2022-12-22T13:38:04.483Z,2864
2022-12-22T13:39:08.292Z,2744
2022-12-22T13:40:11.554Z,2696
2022-12-22T13:41:14.985Z,3104
2022-12-22T13:42:29.518Z,3696
2022-12-22T13:43:33.176Z,4268
2022-12-22T13:44:36.660Z,4368
2022-12-22T13:45:40.068Z,3928
2022-12-22T13:46:44.012Z,3836
2022-12-22T13:47:48.131Z,3768
2022-12-22T13:48:50.881Z,4152
2022-12-22T13:50:10.309Z,4548
2022-12-22T13:51:14.227Z,5144
2022-12-22T13:52:17.396Z,5128
2022-12-22T13:53:49.787Z,5916
2022-12-22T13:55:15.257Z,5940
2022-12-22T13:56:18.670Z,5160
2022-12-22T13:57:22.224Z,4664
2022-12-22T13:58:25.240Z,4232
2022-12-22T13:59:28.694Z,4228
2022-12-22T14:00:32.412Z,4224
2022-12-22T14:01:35.705Z,4616
2022-12-22T14:02:40.884Z,5480
2022-12-22T14:03:59.339Z,5560
2022-12-22T14:05:07.580Z,4916
2022-12-22T14:06:10.697Z,4884
2022-12-22T14:07:13.820Z,4580
2022-12-22T14:08:17.568Z,4392
2022-12-22T14:09:20.722Z,4436
2022-12-22T14:10:24.738Z,4436
2022-12-22T14:11:27.779Z,4320
2022-12-22T14:12:30.562Z,4176
2022-12-22T14:13:33.605Z,4176
2022-12-22T14:14:36.408Z,4500
2022-12-22T14:15:40.106Z,4600
2022-12-22T14:16:43.357Z,4504
2022-12-22T14:17:52.460Z,4392
2022-12-22T14:18:56.635Z,4168
2022-12-22T14:19:59.645Z,3928
2022-12-22T14:21:02.449Z,3744
2022-12-22T14:22:06.529Z,3544
2022-12-22T14:23:09.091Z,3376
2022-12-22T14:24:12.745Z,3240
2022-12-22T14:25:15.914Z,3072
2022-12-22T14:26:19.263Z,2920
2022-12-22T14:27:22.432Z,2808
2022-12-22T14:28:25.896Z,2656
2022-12-22T14:29:29.349Z,2560
2022-12-22T14:30:37.931Z,2484
2022-12-22T14:31:42.057Z,2340
2022-12-22T14:32:49.210Z,2216
2022-12-22T14:33:59.431Z,2088
2022-12-22T14:35:02.900Z,1984
2022-12-22T14:36:06.299Z,1884
2022-12-22T14:37:09.531Z,1772
2022-12-22T14:38:13.634Z,1684
2022-12-22T14:39:17.095Z,1600
2022-12-22T14:40:19.880Z,1520
2022-12-22T14:41:23.634Z,1444
2022-12-22T14:42:27.009Z,1368
2022-12-22T14:43:30.113Z,1288
2022-12-22T14:44:33.249Z,1208
2022-12-22T14:45:36.459Z,1136
2022-12-22T14:46:40.530Z,1064
2022-12-22T14:47:43.890Z,996
2022-12-22T14:48:46.950Z,932
2022-12-22T14:49:50.890Z,864
2022-12-22T14:50:54.435Z,796
2022-12-22T14:52:01.208Z,736
2022-12-22T14:53:04.843Z,680
2022-12-22T14:54:07.890Z,636
2022-12-22T14:55:11.338Z,592
2022-12-22T14:56:15.079Z,556
2022-12-22T14:57:18.471Z,516
2022-12-22T14:58:21.906Z,476
2022-12-22T14:59:25.239Z,436
2022-12-22T15:00:28.125Z,392
2022-12-22T15:01:31.626Z,348
2022-12-22T15:02:39.431Z,312
2022-12-22T15:03:44.889Z,280
2022-12-22T15:04:49.106Z,260
2022-12-22T15:05:52.969Z,240
2022-12-22T15:06:56.987Z,220
2022-12-22T15:08:05.793Z,188
2022-12-22T15:09:13.125Z,168
2022-12-22T15:10:17.193Z,148
2022-12-22T15:11:21.340Z,132
2022-12-22T15:12:24.015Z,116